Time;durP1;ratioP1;P1;durP2;ratioP2;P2;SDS_P1;SDS_P2;PMS_P1;PMS_P2;Temp;Humidity;BMP_temperature;BMP_pressure;BME280_temperature;BME280_humidity;BME280_pressure;Samples;Min_cycle;Max_cycle;Signal;HPM_P1;HPM_P2
2023/09/02 00:00:44;;;;;;;43.55;31.60;;;18.10;99.90;;;;;;4974197;28;20042;-82
2023/09/02 00:03:10;;;;;;;47.72;31.02;;;18.10;99.90;;;;;;4974758;28;20743;-82
2023/09/02 00:05:35;;;;;;;44.17;31.80;;;18.00;99.90;;;;;;4974504;28;20042;-82
2023/09/02 00:08:01;;;;;;;48.53;31.80;;;18.00;99.90;;;;;;4962092;28;20031;-82
2023/09/02 00:10:26;;;;;;;43.22;30.08;;;18.00;99.90;;;;;;4963913;28;20467;-83
2023/09/02 00:12:52;;;;;;;46.55;33.35;;;18.00;99.90;;;;;;4975197;28;20023;-82
2023/09/02 00:15:17;;;;;;;44.95;32.42;;;18.40;99.90;;;;;;4966199;28;20113;-82
2023/09/02 00:17:43;;;;;;;45.65;32.55;;;17.90;99.90;;;;;;4971417;28;20034;-82
2023/09/02 00:20:09;;;;;;;51.45;32.78;;;17.90;99.90;;;;;;4961979;28;20101;-82
2023/09/02 00:22:35;;;;;;;47.50;31.98;;;17.90;99.90;;;;;;4966709;28;20039;-82
2023/09/02 00:25:00;;;;;;;44.75;32.85;;;17.90;99.90;;;;;;4957842;28;20227;-81
2023/09/02 00:27:26;;;;;;;47.17;31.77;;;17.90;99.90;;;;;;4974966;28;20025;-82
2023/09/02 00:29:52;;;;;;;47.45;32.45;;;18.60;99.90;;;;;;4961589;28;20106;-82
2023/09/02 00:32:17;;;;;;;50.63;34.72;;;17.90;99.90;;;;;;4957657;28;20027;-82
2023/09/02 00:34:44;;;;;;;43.30;32.88;;;18.80;99.90;;;;;;4972197;28;20062;-81
2023/09/02 00:37:09;;;;;;;48.90;33.13;;;17.80;99.90;;;;;;4962488;28;20031;-81
2023/09/02 00:39:35;;;;;;;47.75;32.22;;;17.90;99.90;;;;;;4955336;28;20110;-81
2023/09/02 00:42:01;;;;;;;46.45;34.25;;;18.60;99.90;;;;;;4966205;28;20039;-82
2023/09/02 00:44:26;;;;;;;50.83;33.42;;;17.80;99.90;;;;;;4969806;28;20035;-81
2023/09/02 00:46:52;;;;;;;50.10;32.15;;;17.80;99.90;;;;;;4971152;28;20493;-81
2023/09/02 00:49:18;;;;;;;52.50;34.05;;;17.80;99.90;;;;;;4975235;28;20034;-81
2023/09/02 00:51:44;;;;;;;47.83;32.75;;;17.80;99.90;;;;;;4972833;28;20464;-81
2023/09/02 00:54:09;;;;;;;50.78;34.05;;;17.80;99.90;;;;;;4957365;28;20031;-81
2023/09/02 00:56:36;;;;;;;48.95;33.10;;;18.60;99.90;;;;;;4961119;28;20042;-82
2023/09/02 00:59:05;;;;;;;49.28;32.20;;;17.70;99.90;;;;;;4958251;28;20035;-81
2023/09/02 01:01:33;;;;;;;47.97;33.13;;;17.70;99.90;;;;;;4966943;28;20037;-81
2023/09/02 01:04:01;;;;;;;52.20;34.10;;;17.70;99.90;;;;;;4968473;28;20035;-83
2023/09/02 01:06:27;;;;;;;48.63;31.42;;;17.70;99.90;;;;;;4966311;28;20026;-83
2023/09/02 01:08:54;;;;;;;47.33;32.08;;;17.70;99.90;;;;;;4961824;28;20075;-83
2023/09/02 01:11:19;;;;;;;49.53;33.75;;;17.70;99.90;;;;;;4966618;28;20031;-83
2023/09/02 01:13:45;;;;;;;45.83;32.15;;;17.70;99.90;;;;;;4954659;28;20027;-81
2023/09/02 01:16:10;;;;;;;53.40;34.67;;;17.70;99.90;;;;;;4963662;28;20035;-83
2023/09/02 01:18:36;;;;;;;56.13;36.55;;;17.70;99.90;;;;;;4968278;28;20024;-83
2023/09/02 01:21:14;;;;;;;52.85;35.67;;;17.60;99.90;;;;;;4967634;28;20686;-83
2023/09/02 01:23:55;;;;;;;53.50;33.75;;;17.60;99.90;;;;;;4954542;29;20055;-83
2023/09/02 01:26:42;;;;;;;47.70;32.33;;;17.60;99.90;;;;;;4954721;29;20028;-83
2023/09/02 01:29:11;;;;;;;48.33;31.67;;;17.60;99.90;;;;;;4961478;28;20034;-79
2023/09/02 01:31:38;;;;;;;57.47;29.15;;;17.50;99.90;;;;;;4973878;28;20027;-83
2023/09/02 01:34:07;;;;;;;66.78;28.77;;;17.60;99.90;;;;;;4972277;28;20062;-82
2023/09/02 01:36:34;;;;;;;81.63;27.13;;;17.60;99.90;;;;;;4962383;28;20460;-82
2023/09/02 01:39:00;;;;;;;67.43;27.45;;;17.40;99.90;;;;;;4969419;28;20039;-82
2023/09/02 01:41:28;;;;;;;50.65;25.83;;;17.50;99.90;;;;;;4956952;28;20023;-82
2023/09/02 01:43:54;;;;;;;40.33;24.15;;;17.40;99.90;;;;;;4972102;28;20030;-82
2023/09/02 01:46:20;;;;;;;31.42;23.20;;;17.40;99.90;;;;;;4973564;28;20387;-82
2023/09/02 01:48:46;;;;;;;36.13;23.60;;;17.40;99.90;;;;;;4966957;28;20029;-82
2023/09/02 01:51:13;;;;;;;32.92;23.45;;;17.40;99.90;;;;;;4969660;28;20050;-82
2023/09/02 01:53:39;;;;;;;31.88;22.48;;;17.40;99.90;;;;;;4957227;28;20046;-82
2023/09/02 01:56:05;;;;;;;29.48;21.75;;;17.50;99.90;;;;;;4966063;28;20141;-82
2023/09/02 01:58:31;;;;;;;27.80;21.40;;;17.40;99.90;;;;;;4963334;28;20027;-82
2023/09/02 02:00:58;;;;;;;25.08;21.48;;;17.40;99.90;;;;;;4973718;28;20467;-82
2023/09/02 02:03:38;;;;;;;24.52;21.15;;;17.40;99.90;;;;;;4970484;28;20081;-82
2023/09/02 02:06:07;;;;;;;24.20;20.17;;;17.40;99.90;;;;;;4955814;28;20023;-81
2023/09/02 02:08:44;;;;;;;25.55;20.42;;;17.30;99.90;;;;;;4971962;28;20038;-82
2023/09/02 02:11:13;;;;;;;23.13;19.85;;;17.40;99.90;;;;;;4970465;28;20031;-82
2023/09/02 02:13:38;;;;;;;25.15;19.75;;;18.20;99.90;;;;;;4958771;28;20031;-82
2023/09/02 02:16:04;;;;;;;21.45;19.33;;;17.40;99.90;;;;;;4968794;28;20033;-81
2023/09/02 02:18:31;;;;;;;25.08;21.23;;;17.30;99.90;;;;;;4970048;28;20034;-81
2023/09/02 02:21:02;;;;;;;23.98;21.20;;;17.40;99.90;;;;;;4971758;28;20038;-81
2023/09/02 02:23:28;;;;;;;21.55;19.40;;;17.30;99.90;;;;;;4973023;28;20078;-81
2023/09/02 02:26:02;;;;;;;20.80;18.70;;;17.30;99.90;;;;;;4961268;28;20077;-82
2023/09/02 02:28:28;;;;;;;21.58;19.13;;;17.30;99.90;;;;;;4968344;28;20118;-81
2023/09/02 02:30:56;;;;;;;20.52;18.42;;;17.30;99.90;;;;;;4972817;28;20465;-82
2023/09/02 02:33:22;;;;;;;21.85;19.65;;;17.30;99.90;;;;;;4970441;28;20031;-81
2023/09/02 02:35:47;;;;;;;20.90;18.70;;;17.30;99.90;;;;;;4954019;29;20494;-82
2023/09/02 02:38:13;;;;;;;19.95;18.05;;;17.30;99.90;;;;;;4967874;28;20023;-82
2023/09/02 02:40:39;;;;;;;21.58;19.27;;;17.30;99.90;;;;;;4961331;28;20039;-82
2023/09/02 02:43:04;;;;;;;21.48;19.27;;;17.30;99.90;;;;;;4964055;28;20395;-82
2023/09/02 02:45:30;;;;;;;20.55;18.48;;;17.30;99.90;;;;;;4953206;28;20443;-82
2023/09/02 02:47:57;;;;;;;20.23;18.25;;;17.30;99.90;;;;;;4970193;28;20030;-82
2023/09/02 02:50:22;;;;;;;18.63;16.92;;;17.30;99.90;;;;;;4972332;28;20031;-82
2023/09/02 02:52:49;;;;;;;22.40;18.67;;;17.30;99.90;;;;;;4963701;28;20026;-82
2023/09/02 02:55:15;;;;;;;20.30;18.30;;;17.30;99.90;;;;;;4968329;28;20030;-82
2023/09/02 02:57:40;;;;;;;20.70;18.63;;;17.40;99.90;;;;;;4959414;28;20101;-82
2023/09/02 03:00:08;;;;;;;21.48;19.17;;;17.40;99.90;;;;;;4967955;28;20037;-82
2023/09/02 03:02:34;;;;;;;20.27;18.27;;;17.40;99.90;;;;;;4954055;28;20033;-82
2023/09/02 03:05:00;;;;;;;19.05;17.15;;;17.40;99.90;;;;;;4965190;28;20047;-82
2023/09/02 03:07:25;;;;;;;18.92;17.08;;;17.40;99.90;;;;;;4952941;29;20027;-82
2023/09/02 03:09:52;;;;;;;19.77;17.88;;;17.90;99.90;;;;;;4957812;28;20031;-82
2023/09/02 03:12:18;;;;;;;18.77;16.98;;;17.40;99.90;;;;;;4953329;29;20064;-82
2023/09/02 03:14:46;;;;;;;19.50;17.55;;;17.50;99.90;;;;;;4953197;28;20122;-82
2023/09/02 03:17:12;;;;;;;20.20;18.35;;;17.90;99.90;;;;;;4971565;28;20041;-82
2023/09/02 03:19:38;;;;;;;18.55;16.77;;;17.40;99.90;;;;;;4956867;28;20035;-82
2023/09/02 03:22:04;;;;;;;19.58;17.58;;;17.40;99.90;;;;;;4958292;28;20043;-82
2023/09/02 03:24:29;;;;;;;18.38;16.55;;;17.30;99.90;;;;;;4966494;28;20170;-82
2023/09/02 03:26:55;;;;;;;18.33;16.42;;;17.30;99.90;;;;;;4966011;28;20043;-82
2023/09/02 03:29:20;;;;;;;19.45;17.50;;;17.30;99.90;;;;;;4966597;28;20121;-82
2023/09/02 03:31:46;;;;;;;19.30;17.40;;;17.40;99.90;;;;;;4976160;28;20382;-82
2023/09/02 03:34:11;;;;;;;20.05;17.90;;;18.20;99.90;;;;;;4974402;28;20495;-82
2023/09/02 03:36:37;;;;;;;19.83;17.80;;;17.50;99.90;;;;;;4966314;28;20035;-82
2023/09/02 03:39:03;;;;;;;20.42;18.33;;;17.60;99.90;;;;;;4965446;28;20031;-82
2023/09/02 03:41:28;;;;;;;19.95;18.08;;;17.40;99.90;;;;;;4973450;28;20125;-81
2023/09/02 03:43:55;;;;;;;20.55;18.42;;;17.30;99.90;;;;;;4965870;28;20468;-82
2023/09/02 03:46:22;;;;;;;18.60;16.77;;;17.30;99.90;;;;;;4956696;29;20047;-82
2023/09/02 03:48:48;;;;;;;20.08;17.48;;;17.40;99.90;;;;;;4962182;28;20037;-82
2023/09/02 03:51:16;;;;;;;24.08;17.20;;;17.40;99.90;;;;;;4975462;28;20027;-82
2023/09/02 03:53:43;;;;;;;20.15;18.20;;;17.40;99.90;;;;;;4968818;28;20046;-83
2023/09/02 03:56:09;;;;;;;18.38;16.52;;;17.40;99.90;;;;;;4958998;28;20035;-82
2023/09/02 03:58:35;;;;;;;19.00;17.15;;;17.40;99.90;;;;;;4966770;28;20019;-82
2023/09/02 04:01:01;;;;;;;19.35;17.45;;;17.40;99.90;;;;;;4975864;28;20031;-82
2023/09/02 04:03:28;;;;;;;19.00;17.00;;;17.40;99.90;;;;;;4971781;28;20050;-81
2023/09/02 04:05:54;;;;;;;17.55;15.95;;;17.40;99.90;;;;;;4975544;28;20043;-83
2023/09/02 04:08:22;;;;;;;17.92;16.27;;;17.30;99.90;;;;;;4973877;28;20024;-82
2023/09/02 04:10:52;;;;;;;17.40;15.90;;;17.40;99.90;;;;;;4973434;28;20026;-82
2023/09/02 04:13:30;;;;;;;21.30;16.30;;;17.90;99.90;;;;;;4972069;28;20513;-82
2023/09/02 04:15:57;;;;;;;17.38;15.77;;;17.30;99.90;;;;;;4975581;28;20069;-82
2023/09/02 04:18:23;;;;;;;16.83;15.20;;;17.30;99.90;;;;;;4973409;28;20034;-82
2023/09/02 04:20:49;;;;;;;22.20;14.77;;;17.30;99.90;;;;;;4974691;28;20121;-82
2023/09/02 04:23:15;;;;;;;15.95;14.25;;;18.00;99.90;;;;;;4961397;28;20026;-82
2023/09/02 04:25:49;;;;;;;14.50;13.30;;;17.30;99.90;;;;;;4974501;28;20471;-81
2023/09/02 04:28:15;;;;;;;15.48;14.07;;;17.30;99.90;;;;;;4961495;28;20090;-81
2023/09/02 04:30:41;;;;;;;15.73;14.23;;;17.30;99.90;;;;;;4974596;28;20113;-82
2023/09/02 04:33:07;;;;;;;15.10;13.70;;;17.30;99.90;;;;;;4967387;28;20074;-82
2023/09/02 04:35:39;;;;;;;32.25;14.55;;;17.20;99.90;;;;;;4960072;28;20475;-83
2023/09/02 04:38:05;;;;;;;16.20;14.68;;;17.30;99.90;;;;;;4972474;28;20479;-82
2023/09/02 04:40:35;;;;;;;18.33;16.42;;;17.20;99.90;;;;;;4973280;28;20039;-82
2023/09/02 04:43:00;;;;;;;26.75;15.77;;;17.20;99.90;;;;;;4971214;28;20085;-82
2023/09/02 04:45:26;;;;;;;17.73;15.55;;;17.60;99.90;;;;;;4972279;28;20039;-82
2023/09/02 04:47:52;;;;;;;18.73;15.45;;;17.20;99.90;;;;;;4971162;28;20025;-82
2023/09/02 04:50:17;;;;;;;16.80;15.10;;;17.20;99.90;;;;;;4966054;28;20034;-82
2023/09/02 04:52:44;;;;;;;18.17;15.13;;;17.30;99.90;;;;;;4962636;28;20464;-83
2023/09/02 04:55:10;;;;;;;19.35;13.85;;;17.70;99.90;;;;;;4972893;28;20023;-83
2023/09/02 04:57:36;;;;;;;20.95;16.38;;;17.20;99.90;;;;;;4968649;28;20024;-82
2023/09/02 05:00:02;;;;;;;15.77;14.32;;;17.10;99.90;;;;;;4954836;29;20027;-83
2023/09/02 05:02:28;;;;;;;24.33;14.50;;;17.10;99.90;;;;;;4971122;28;20454;-83
2023/09/02 05:04:53;;;;;;;32.25;15.02;;;17.00;99.90;;;;;;4973963;28;20102;-83
2023/09/02 05:07:19;;;;;;;23.55;14.13;;;17.00;99.90;;;;;;4962284;28;20023;-82
2023/09/02 05:09:44;;;;;;;20.08;12.98;;;17.00;99.90;;;;;;4960232;28;20070;-82
2023/09/02 05:12:10;;;;;;;14.27;12.77;;;17.10;99.90;;;;;;4973101;28;20023;-82
2023/09/02 05:14:38;;;;;;;16.90;12.73;;;16.90;99.90;;;;;;4962601;28;20383;-82
2023/09/02 05:17:03;;;;;;;13.93;12.73;;;16.90;99.90;;;;;;4967563;28;20023;-82
2023/09/02 05:19:29;;;;;;;12.98;11.88;;;16.90;99.90;;;;;;4957702;28;20027;-82
2023/09/02 05:21:57;;;;;;;25.75;11.73;;;16.90;99.90;;;;;;4956915;28;20038;-81
2023/09/02 05:24:22;;;;;;;12.20;11.15;;;16.80;99.90;;;;;;4973806;28;20055;-82
2023/09/02 05:26:48;;;;;;;11.52;10.63;;;16.80;99.90;;;;;;4962416;28;20142;-81
2023/09/02 05:29:14;;;;;;;11.60;10.80;;;16.90;99.90;;;;;;4971339;28;20027;-81
2023/09/02 05:31:39;;;;;;;12.57;11.63;;;16.90;99.90;;;;;;4966199;28;20062;-82
2023/09/02 05:34:05;;;;;;;13.45;12.38;;;17.20;99.90;;;;;;4971242;28;20089;-82
2023/09/02 05:36:30;;;;;;;14.05;12.75;;;16.80;99.90;;;;;;4957663;28;20039;-82
2023/09/02 05:38:56;;;;;;;18.13;12.95;;;16.90;99.90;;;;;;4972516;28;20487;-82
2023/09/02 05:41:24;;;;;;;13.60;12.48;;;17.90;99.90;;;;;;4954280;29;20031;-82
2023/09/02 05:43:50;;;;;;;13.75;12.15;;;16.90;99.90;;;;;;4954250;29;20094;-82
2023/09/02 05:46:15;;;;;;;15.52;14.13;;;17.30;99.90;;;;;;4966818;28;20042;-82
2023/09/02 05:48:41;;;;;;;15.18;13.68;;;16.90;99.90;;;;;;4956418;28;20034;-81
2023/09/02 05:51:06;;;;;;;13.07;11.98;;;16.80;99.90;;;;;;4964624;28;20443;-82
2023/09/02 05:53:32;;;;;;;13.88;12.77;;;17.00;99.90;;;;;;4953339;28;20035;-82
2023/09/02 05:55:58;;;;;;;14.05;12.63;;;16.80;99.90;;;;;;4964924;28;20031;-84
2023/09/02 05:58:25;;;;;;;33.53;13.48;;;17.00;99.90;;;;;;4959685;28;20077;-83
2023/09/02 06:00:50;;;;;;;14.75;13.48;;;16.70;99.90;;;;;;4968864;28;20026;-82
2023/09/02 06:03:16;;;;;;;13.57;12.32;;;17.00;99.90;;;;;;4972067;28;20038;-82
2023/09/02 06:05:42;;;;;;;15.75;12.52;;;16.60;99.90;;;;;;4973032;28;20126;-82
2023/09/02 06:08:07;;;;;;;14.57;13.38;;;16.60;99.90;;;;;;4969746;28;20399;-82
2023/09/02 06:10:33;;;;;;;12.75;11.70;;;16.60;99.90;;;;;;4971719;28;20394;-82
2023/09/02 06:12:58;;;;;;;14.85;13.30;;;16.90;99.90;;;;;;4971979;28;20019;-82
2023/09/02 06:15:25;;;;;;;15.70;14.07;;;16.60;99.90;;;;;;4971540;28;20026;-81
2023/09/02 06:17:51;;;;;;;14.80;13.40;;;16.60;99.90;;;;;;4971401;28;20085;-81
2023/09/02 06:20:20;;;;;;;14.80;13.55;;;16.50;99.90;;;;;;4970068;28;20031;-82
2023/09/02 06:22:46;;;;;;;15.45;13.93;;;16.50;99.90;;;;;;4971083;28;20533;-82
2023/09/02 06:25:12;;;;;;;13.98;12.88;;;16.50;99.90;;;;;;4970533;28;20046;-82
2023/09/02 06:27:38;;;;;;;15.13;13.65;;;16.60;99.90;;;;;;4971628;28;20030;-82
2023/09/02 06:30:04;;;;;;;13.90;12.70;;;16.60;99.90;;;;;;4972100;28;20039;-82
2023/09/02 06:32:30;;;;;;;14.95;13.55;;;16.60;99.90;;;;;;4971825;28;20025;-82
2023/09/02 06:34:55;;;;;;;25.13;11.85;;;16.50;99.90;;;;;;4971735;28;20117;-82
2023/09/02 06:37:21;;;;;;;30.80;12.20;;;16.60;99.90;;;;;;4972039;28;20082;-82
2023/09/02 06:39:52;;;;;;;11.60;10.50;;;16.70;99.90;;;;;;4971400;28;20031;-82
2023/09/02 06:42:17;;;;;;;12.32;11.32;;;16.50;99.90;;;;;;4970312;28;20106;-82
2023/09/02 06:44:46;;;;;;;24.83;12.55;;;16.50;99.90;;;;;;4968984;28;20118;-81
2023/09/02 06:47:13;;;;;;;24.63;12.05;;;16.60;99.90;;;;;;4972379;28;20027;-82
2023/09/02 06:49:38;;;;;;;18.17;13.32;;;16.50;99.90;;;;;;4971591;28;20038;-82
2023/09/02 06:52:04;;;;;;;19.00;12.80;;;16.60;99.90;;;;;;4971712;28;20370;-82
2023/09/02 06:54:30;;;;;;;13.60;12.40;;;16.70;99.90;;;;;;4970898;28;20077;-82
2023/09/02 06:56:55;;;;;;;13.65;12.35;;;16.70;99.90;;;;;;4971905;28;20379;-82
2023/09/02 06:59:23;;;;;;;13.15;12.00;;;16.70;99.90;;;;;;4956983;28;20031;-82
2023/09/02 07:01:48;;;;;;;13.60;12.35;;;16.80;99.90;;;;;;4965662;28;20027;-81
2023/09/02 07:04:14;;;;;;;16.45;14.13;;;16.90;99.90;;;;;;4954372;28;20082;-82
2023/09/02 07:06:39;;;;;;;19.02;13.40;;;17.10;99.90;;;;;;4963179;28;20038;-83
2023/09/02 07:09:05;;;;;;;14.18;12.68;;;16.90;99.90;;;;;;4962910;28;20369;-83
2023/09/02 07:11:30;;;;;;;28.48;14.10;;;16.90;99.90;;;;;;4966140;28;20030;-83
2023/09/02 07:13:57;;;;;;;27.58;13.40;;;17.00;99.90;;;;;;4962924;28;20035;-82
2023/09/02 07:16:23;;;;;;;16.00;14.27;;;17.00;99.90;;;;;;4976599;28;20038;-83
2023/09/02 07:18:48;;;;;;;17.45;13.82;;;17.10;99.90;;;;;;4973845;28;20110;-83
2023/09/02 07:21:14;;;;;;;15.93;14.40;;;17.40;99.90;;;;;;4956843;29;20102;-82
2023/09/02 07:23:40;;;;;;;17.42;15.77;;;16.90;99.90;;;;;;4968200;28;20106;-82
2023/09/02 07:26:05;;;;;;;23.38;15.05;;;17.00;99.90;;;;;;4976210;28;20094;-82
2023/09/02 07:28:32;;;;;;;15.15;13.65;;;17.00;99.90;;;;;;4966358;28;20058;-82
2023/09/02 07:31:01;;;;;;;14.38;13.05;;;17.00;99.90;;;;;;4956682;29;20130;-82
2023/09/02 07:33:26;;;;;;;15.43;13.95;;;17.60;99.90;;;;;;4973933;28;20022;-83
2023/09/02 07:35:52;;;;;;;16.65;14.90;;;17.40;99.90;;;;;;4974837;28;20030;-82
2023/09/02 07:38:18;;;;;;;15.82;14.38;;;17.60;99.90;;;;;;4965398;28;20023;-82
2023/09/02 07:40:43;;;;;;;18.67;16.50;;;17.10;99.90;;;;;;4963515;28;20543;-81
2023/09/02 07:43:09;;;;;;;18.83;16.83;;;17.10;99.90;;;;;;4961545;28;20031;-82
2023/09/02 07:45:35;;;;;;;16.27;14.63;;;17.20;99.90;;;;;;4965752;28;20047;-83
2023/09/02 07:48:01;;;;;;;17.83;15.70;;;17.10;99.90;;;;;;4974941;28;20538;-83
2023/09/02 07:50:26;;;;;;;18.58;16.05;;;17.20;99.90;;;;;;4975726;28;20034;-83
2023/09/02 07:52:52;;;;;;;18.35;16.25;;;17.20;99.90;;;;;;4971270;28;20022;-84
2023/09/02 07:55:17;;;;;;;19.85;16.92;;;17.20;99.90;;;;;;4964037;28;20039;-83
2023/09/02 07:57:43;;;;;;;18.60;16.25;;;17.20;99.90;;;;;;4956166;29;20054;-85
2023/09/02 08:00:09;;;;;;;18.85;16.48;;;17.20;99.90;;;;;;4966810;28;20418;-85
2023/09/02 08:02:34;;;;;;;22.85;17.45;;;17.20;99.90;;;;;;4955695;28;20081;-83
2023/09/02 08:05:00;;;;;;;27.13;18.77;;;17.70;99.90;;;;;;4956163;29;20032;-84
2023/09/02 08:07:25;;;;;;;19.33;17.30;;;17.30;99.90;;;;;;4962012;28;20031;-81
2023/09/02 08:09:51;;;;;;;20.25;17.95;;;17.30;99.90;;;;;;4955698;29;20042;-82
2023/09/02 08:12:17;;;;;;;25.17;19.77;;;17.30;99.90;;;;;;4968384;28;20030;-82
2023/09/02 08:14:42;;;;;;;24.85;19.40;;;17.40;99.90;;;;;;4973114;28;20027;-82
2023/09/02 08:17:08;;;;;;;25.25;19.85;;;17.40;99.90;;;;;;4960935;28;20395;-82
2023/09/02 08:19:34;;;;;;;29.60;21.65;;;17.90;99.90;;;;;;4974133;28;20077;-82
2023/09/02 08:21:59;;;;;;;24.35;20.05;;;17.50;99.90;;;;;;4970339;28;20031;-82
2023/09/02 08:24:25;;;;;;;27.52;21.25;;;17.50;99.90;;;;;;4968222;28;20058;-83
2023/09/02 08:26:50;;;;;;;28.20;20.45;;;17.50;99.90;;;;;;4970740;28;20495;-82
2023/09/02 08:29:16;;;;;;;29.60;21.52;;;17.50;99.90;;;;;;4973449;28;20066;-81
2023/09/02 08:31:42;;;;;;;31.02;21.42;;;17.60;99.90;;;;;;4964684;28;20047;-81
2023/09/02 08:34:08;;;;;;;29.92;21.23;;;17.60;99.90;;;;;;4970896;28;20031;-81
2023/09/02 08:36:33;;;;;;;32.75;24.15;;;18.00;99.90;;;;;;4964382;28;20024;-81
2023/09/02 08:38:59;;;;;;;34.10;22.90;;;17.60;99.90;;;;;;4967949;28;20019;-81
2023/09/02 08:41:35;;;;;;;29.38;21.30;;;17.60;99.90;;;;;;4953472;29;20035;-81
2023/09/02 08:44:04;;;;;;;35.72;24.73;;;17.60;99.90;;;;;;4967483;28;20055;-81
2023/09/02 08:46:31;;;;;;;36.40;25.25;;;17.60;99.90;;;;;;4960923;28;20035;-81
2023/09/02 08:48:58;;;;;;;36.75;24.40;;;17.60;99.90;;;;;;4975151;28;20027;-81
2023/09/02 08:51:25;;;;;;;34.22;24.08;;;17.70;99.90;;;;;;4972911;28;20037;-81
2023/09/02 08:53:53;;;;;;;30.30;22.98;;;17.70;99.90;;;;;;4962315;28;20119;-80
2023/09/02 08:56:21;;;;;;;33.47;24.10;;;17.70;99.90;;;;;;4970436;28;20038;-82
2023/09/02 08:58:47;;;;;;;33.92;24.05;;;17.70;99.90;;;;;;4969818;28;20054;-82
2023/09/02 09:01:20;;;;;;;33.97;24.15;;;17.70;99.90;;;;;;4973285;28;20109;-81
2023/09/02 09:03:53;;;;;;;28.48;21.80;;;17.70;99.90;;;;;;4972685;28;20046;-82
2023/09/02 09:06:28;;;;;;;26.65;20.85;;;17.80;99.90;;;;;;4965678;28;20042;-82
2023/09/02 09:08:55;;;;;;;33.03;22.38;;;17.70;99.90;;;;;;4971491;28;20070;-82
2023/09/02 09:11:22;;;;;;;35.72;24.55;;;17.70;99.90;;;;;;4973635;28;20023;-82
2023/09/02 09:13:49;;;;;;;30.83;22.00;;;17.80;99.90;;;;;;4966470;28;20559;-81
2023/09/02 09:16:31;;;;;;;35.83;23.58;;;17.90;99.90;;;;;;4962338;28;20078;-81
2023/09/02 09:18:57;;;;;;;34.72;24.20;;;17.90;99.90;;;;;;4967078;28;20043;-81
2023/09/02 09:21:23;;;;;;;34.90;24.05;;;18.00;99.90;;;;;;4966879;28;20026;-82
2023/09/02 09:23:49;;;;;;;41.95;25.85;;;17.90;99.90;;;;;;4969456;28;20154;-82
2023/09/02 09:26:15;;;;;;;39.70;26.38;;;17.90;99.90;;;;;;4958845;28;20557;-82
2023/09/02 09:28:58;;;;;;;43.00;27.40;;;17.90;99.90;;;;;;4963708;28;20027;-82
2023/09/02 09:31:25;;;;;;;44.17;26.92;;;17.90;99.90;;;;;;4971620;28;20031;-82
2023/09/02 09:34:01;;;;;;;47.05;28.20;;;17.90;99.90;;;;;;4971469;28;20035;-82
2023/09/02 09:36:29;;;;;;;46.97;28.48;;;18.00;99.90;;;;;;4967193;28;20038;-82
2023/09/02 09:38:56;;;;;;;42.08;27.80;;;18.00;99.90;;;;;;4961897;28;20035;-82
2023/09/02 09:41:23;;;;;;;45.92;28.98;;;17.90;99.90;;;;;;4971702;28;20476;-82
2023/09/02 09:44:11;;;;;;;49.78;29.42;;;18.00;99.90;;;;;;4958533;28;20042;-82
2023/09/02 09:46:56;;;;;;;45.08;28.85;;;18.00;99.90;;;;;;4963460;28;20360;-82
2023/09/02 09:49:27;;;;;;;49.53;29.60;;;18.00;99.90;;;;;;4962100;28;20093;-82
2023/09/02 09:52:02;;;;;;;46.70;29.60;;;18.00;99.90;;;;;;4970703;28;20062;-82
2023/09/02 09:54:45;;;;;;;51.20;30.45;;;18.20;99.90;;;;;;4956724;28;20037;-82
2023/09/02 09:57:14;;;;;;;46.80;28.67;;;18.10;99.90;;;;;;4957058;28;20039;-82
2023/09/02 09:59:52;;;;;;;49.78;29.77;;;18.00;99.90;;;;;;4962376;28;20117;-82
2023/09/02 10:02:20;;;;;;;52.47;30.23;;;18.20;99.90;;;;;;4970232;28;20071;-82
2023/09/02 10:05:04;;;;;;;50.28;31.08;;;18.20;99.90;;;;;;4972960;28;20042;-81
2023/09/02 10:07:31;;;;;;;46.53;28.50;;;18.30;99.90;;;;;;4968595;28;20035;-82
2023/09/02 10:10:02;;;;;;;48.00;30.30;;;18.40;99.90;;;;;;4953158;28;20415;-81
2023/09/02 10:12:34;;;;;;;48.55;30.38;;;18.30;99.90;;;;;;4958711;28;20027;-81
2023/09/02 10:15:01;;;;;;;50.67;30.80;;;18.40;99.90;;;;;;4954375;29;20432;-82
2023/09/02 10:17:27;;;;;;;54.50;33.55;;;18.40;99.90;;;;;;4959396;28;20031;-82
2023/09/02 10:19:53;;;;;;;54.85;32.58;;;18.40;99.90;;;;;;4962029;28;20035;-82
2023/09/02 10:22:21;;;;;;;54.45;33.60;;;18.50;99.90;;;;;;4965623;28;20046;-82
2023/09/02 10:25:03;;;;;;;55.65;33.65;;;18.50;99.90;;;;;;4953561;29;20055;-82
2023/09/02 10:27:36;;;;;;;52.10;33.60;;;18.50;99.90;;;;;;4970627;28;20039;-81
2023/09/02 10:30:03;;;;;;;56.95;33.33;;;18.60;99.90;;;;;;4971117;28;20041;-81
2023/09/02 10:32:40;;;;;;;52.42;32.42;;;18.60;99.90;;;;;;4972923;28;20077;-82
2023/09/02 10:35:13;;;;;;;49.28;32.72;;;18.60;99.90;;;;;;4972341;28;20031;-82
2023/09/02 10:37:53;;;;;;;46.78;30.73;;;18.70;99.90;;;;;;4971152;28;20031;-82
2023/09/02 10:40:26;;;;;;;52.17;32.70;;;18.70;99.90;;;;;;4964429;28;20102;-81
2023/09/02 10:42:53;;;;;;;50.70;33.03;;;18.90;99.90;;;;;;4955967;28;20503;-81
2023/09/02 10:45:20;;;;;;;48.17;32.58;;;18.90;99.90;;;;;;4968777;28;20039;-81
2023/09/02 10:47:47;;;;;;;48.40;32.15;;;18.90;99.90;;;;;;4962894;28;20045;-81
2023/09/02 10:50:18;;;;;;;48.92;32.30;;;18.90;99.90;;;;;;4972916;28;20039;-81
2023/09/02 10:52:43;;;;;;;50.05;30.73;;;18.90;99.90;;;;;;4971170;28;20039;-81
2023/09/02 10:55:10;;;;;;;49.45;31.85;;;19.00;99.90;;;;;;4969079;28;20039;-81
2023/09/02 10:57:56;;;;;;;48.47;31.27;;;18.90;99.90;;;;;;4959955;28;20070;-81
2023/09/02 11:00:27;;;;;;;46.33;30.73;;;19.00;99.90;;;;;;4963981;28;20042;-82
2023/09/02 11:02:55;;;;;;;50.97;31.27;;;19.00;99.90;;;;;;4970805;28;20057;-81
2023/09/02 11:05:22;;;;;;;42.50;29.25;;;19.00;99.90;;;;;;4955872;28;20043;-81
2023/09/02 11:07:49;;;;;;;49.05;30.88;;;19.00;99.90;;;;;;4971191;28;20043;-81
2023/09/02 11:10:16;;;;;;;45.20;30.15;;;19.00;99.90;;;;;;4966355;28;20031;-81
2023/09/02 11:13:00;;;;;;;46.25;30.70;;;19.10;99.90;;;;;;4960840;28;20468;-81
2023/09/02 11:15:26;;;;;;;52.03;32.03;;;19.10;99.90;;;;;;4953688;28;20370;-81
2023/09/02 11:17:54;;;;;;;47.83;32.03;;;19.20;99.90;;;;;;4969172;28;20459;-81
2023/09/02 11:20:23;;;;;;;46.08;30.65;;;19.20;99.90;;;;;;4972113;28;20086;-81
2023/09/02 11:22:56;;;;;;;52.10;32.67;;;19.20;99.90;;;;;;4968637;28;20046;-81
2023/09/02 11:25:37;;;;;;;47.97;32.33;;;19.30;99.90;;;;;;4970824;28;20113;-81
2023/09/02 11:28:07;;;;;;;46.78;30.70;;;19.30;99.90;;;;;;4969755;28;20415;-81
2023/09/02 11:30:35;;;;;;;43.42;28.42;;;19.40;99.90;;;;;;4970155;28;20031;-81
2023/09/02 11:33:01;;;;;;;45.25;29.83;;;19.50;99.90;;;;;;4965237;28;20536;-81
2023/09/02 11:35:34;;;;;;;45.78;28.88;;;19.50;99.90;;;;;;4955212;28;20031;-81
2023/09/02 11:38:01;;;;;;;44.22;29.77;;;19.50;99.90;;;;;;4971370;28;20122;-81
2023/09/02 11:40:28;;;;;;;47.10;31.63;;;19.80;99.90;;;;;;4957155;28;20031;-82
2023/09/02 11:42:59;;;;;;;45.08;28.77;;;19.50;99.90;;;;;;4958474;28;20031;-81
2023/09/02 11:45:27;;;;;;;43.97;28.50;;;19.50;99.90;;;;;;4964589;28;20058;-81
2023/09/02 11:47:53;;;;;;;39.83;27.60;;;19.80;99.90;;;;;;4952393;29;20408;-81
2023/09/02 11:50:21;;;;;;;44.88;27.73;;;19.50;99.90;;;;;;4962790;28;20038;-81
2023/09/02 11:52:51;;;;;;;44.03;28.35;;;19.50;99.90;;;;;;4968185;28;20094;-82
2023/09/02 11:55:17;;;;;;;40.43;28.80;;;19.50;99.90;;;;;;4973866;28;20042;-81
2023/09/02 11:57:44;;;;;;;40.58;26.67;;;19.50;99.90;;;;;;4972391;28;20031;-81
2023/09/02 12:00:21;;;;;;;39.42;25.15;;;19.50;99.90;;;;;;4966587;28;20066;-81
2023/09/02 12:02:48;;;;;;;32.75;23.45;;;19.60;99.90;;;;;;4974926;28;20118;-81
2023/09/02 12:05:15;;;;;;;37.65;24.20;;;19.60;99.90;;;;;;4976795;28;20035;-81
2023/09/02 12:07:43;;;;;;;30.60;22.40;;;19.60;99.90;;;;;;4964614;28;20031;-81
2023/09/02 12:10:14;;;;;;;32.13;23.83;;;19.60;99.90;;;;;;4975723;28;20074;-82
2023/09/02 12:12:48;;;;;;;36.92;23.40;;;19.70;99.90;;;;;;4967599;28;20435;-81
2023/09/02 12:15:17;;;;;;;33.10;22.13;;;19.70;99.90;;;;;;4974905;28;20027;-81
2023/09/02 12:17:44;;;;;;;31.98;20.73;;;19.60;99.90;;;;;;4970385;28;20023;-81
2023/09/02 12:20:15;;;;;;;29.42;20.88;;;19.70;99.90;;;;;;4971057;28;20443;-81
2023/09/02 12:22:42;;;;;;;29.63;21.80;;;19.70;99.90;;;;;;4970594;28;20031;-81
2023/09/02 12:25:12;;;;;;;30.15;21.27;;;19.70;99.90;;;;;;4954526;28;20056;-81
2023/09/02 12:27:37;;;;;;;28.48;21.35;;;19.70;99.90;;;;;;4944112;29;20024;-81
2023/09/02 12:30:03;;;;;;;30.35;20.90;;;19.80;99.90;;;;;;4955157;29;20396;-82